Terminal Aerodrome Forecast
Issued by NWS

Home | Current Version | Previous Version | Text Only | Print | Product List | Glossary On
Versions: 1 2 3 4 5 6 7 8 9 10 11 12 13
000
FTUS42 KTAE 070536
TAFVLD
TAF
KVLD 070536Z 0706/0806 00000KT P6SM SKC
      TEMPO 0709/0713 4SM BR
     FM071500 02006KT P6SM SKC=

USA.gov is the U.S. government's official web portal to all federal, state and local government web resources and services.